createdAt,value
2023-05-19T00:00:55.273Z,232.78
2023-05-19T00:01:55.476Z,232.07
2023-05-19T00:02:55.761Z,234.30
2023-05-19T00:03:55.777Z,238.06
2023-05-19T00:04:56.078Z,240.19
2023-05-19T00:05:56.173Z,240.19
2023-05-19T00:06:56.410Z,237.54
2023-05-19T00:07:56.502Z,241.96
2023-05-19T00:08:56.723Z,244.59
2023-05-19T00:09:56.898Z,241.54
2023-05-19T00:10:57.076Z,241.29
2023-05-19T00:11:57.256Z,241.85
2023-05-19T00:12:58.167Z,241.28
2023-05-19T00:13:57.477Z,242.35
2023-05-19T00:14:57.501Z,243.29
2023-05-19T00:15:57.651Z,244.70
2023-05-19T00:16:57.557Z,242.14
2023-05-19T00:17:57.543Z,243.35
2023-05-19T00:18:57.558Z,246.00
2023-05-19T00:19:57.573Z,247.32
2023-05-19T00:20:57.594Z,247.97
2023-05-19T00:21:57.617Z,249.96
2023-05-19T00:22:57.632Z,249.77
2023-05-19T00:23:57.653Z,243.63
2023-05-19T00:24:57.781Z,239.83
2023-05-19T00:25:57.749Z,239.70
2023-05-19T00:26:57.842Z,242.73
2023-05-19T00:27:57.839Z,244.70
2023-05-19T00:28:57.805Z,245.69
2023-05-19T00:29:57.800Z,245.21
2023-05-19T00:30:57.821Z,245.55
2023-05-19T00:31:57.863Z,246.96
2023-05-19T00:32:57.895Z,248.38
2023-05-19T00:33:57.902Z,248.45
2023-05-19T00:34:57.932Z,246.67
2023-05-19T00:35:57.966Z,246.64
2023-05-19T00:36:58.015Z,246.19
2023-05-19T00:37:58.072Z,247.60
2023-05-19T00:38:58.114Z,248.85
2023-05-19T00:39:58.182Z,250.00
2023-05-19T00:40:58.351Z,250.18
2023-05-19T00:41:58.626Z,249.89
2023-05-19T00:42:58.718Z,249.79
2023-05-19T00:43:58.702Z,244.99
2023-05-19T00:44:58.902Z,244.25
2023-05-19T00:45:59.156Z,244.93
2023-05-19T00:46:59.493Z,245.75
2023-05-19T00:47:59.329Z,245.82
2023-05-19T00:48:59.208Z,246.86
2023-05-19T00:49:59.203Z,246.97
2023-05-19T00:50:59.215Z,245.83
2023-05-19T00:51:59.190Z,243.70
2023-05-19T00:52:59.181Z,240.58
2023-05-19T00:53:59.186Z,236.56
2023-05-19T00:54:59.168Z,231.24
2023-05-19T00:55:59.208Z,231.36
2023-05-19T00:56:59.181Z,230.75
2023-05-19T00:57:59.260Z,232.35
2023-05-19T00:58:59.365Z,232.41
2023-05-19T00:59:59.263Z,233.08
2023-05-19T01:00:59.310Z,235.98
2023-05-19T01:01:59.223Z,235.60
2023-05-19T01:02:59.374Z,234.03
2023-05-19T01:03:59.550Z,233.63
2023-05-19T01:04:59.234Z,236.59
2023-05-19T01:05:59.230Z,240.05
2023-05-19T01:06:59.243Z,241.40
2023-05-19T01:07:59.204Z,238.87
2023-05-19T01:08:59.223Z,236.97
2023-05-19T01:09:59.248Z,238.43
2023-05-19T01:10:59.185Z,237.01
2023-05-19T01:11:59.169Z,236.49
2023-05-19T01:12:59.151Z,237.51
2023-05-19T01:13:59.149Z,239.15
2023-05-19T01:14:59.125Z,241.73
2023-05-19T01:15:59.149Z,243.28
2023-05-19T01:16:59.134Z,244.05
2023-05-19T01:17:59.114Z,242.62
2023-05-19T01:18:59.173Z,243.69
2023-05-19T01:19:59.084Z,249.44
2023-05-19T01:20:59.096Z,250.80
2023-05-19T01:21:59.092Z,251.01
2023-05-19T01:22:59.040Z,250.00
2023-05-19T01:23:59.076Z,250.08
2023-05-19T01:24:59.019Z,248.98
2023-05-19T01:25:58.980Z,248.99
2023-05-19T01:26:59.002Z,249.77
2023-05-19T01:27:59.025Z,250.00
2023-05-19T01:28:59.068Z,247.95
2023-05-19T01:29:59.103Z,246.01
2023-05-19T01:30:59.177Z,241.65
2023-05-19T01:31:59.250Z,240.40
2023-05-19T01:32:59.300Z,238.78
2023-05-19T01:33:59.317Z,234.96
2023-05-19T01:34:59.337Z,232.90
2023-05-19T01:35:59.376Z,231.12
2023-05-19T01:36:59.447Z,230.21
2023-05-19T01:37:59.516Z,230.41
2023-05-19T01:38:59.552Z,230.84
2023-05-19T01:39:59.643Z,232.73
2023-05-19T01:40:59.665Z,234.06
2023-05-19T01:41:59.724Z,237.81
2023-05-19T01:42:59.785Z,239.59
2023-05-19T01:43:59.856Z,241.60
2023-05-19T01:44:59.901Z,242.91
2023-05-19T01:46:00.032Z,244.97
2023-05-19T01:47:00.060Z,245.64
2023-05-19T01:48:00.178Z,248.63
2023-05-19T01:49:00.120Z,249.67
2023-05-19T01:50:00.202Z,249.52
2023-05-19T01:51:00.374Z,246.58
2023-05-19T01:52:00.536Z,247.71
2023-05-19T01:53:00.709Z,248.41
2023-05-19T01:54:00.918Z,244.46
2023-05-19T01:55:01.097Z,241.33
2023-05-19T01:56:01.232Z,236.38
2023-05-19T01:57:01.472Z,234.89
2023-05-19T01:58:01.571Z,234.74
2023-05-19T01:59:01.739Z,236.58
2023-05-19T02:00:01.907Z,234.82
2023-05-19T02:01:02.099Z,234.73
2023-05-19T02:02:02.324Z,235.42
2023-05-19T02:03:02.570Z,235.94
2023-05-19T02:04:02.793Z,235.01
2023-05-19T02:05:02.928Z,236.31
2023-05-19T02:06:03.089Z,234.54
2023-05-19T02:07:03.249Z,232.21
2023-05-19T02:08:03.481Z,231.75
2023-05-19T02:09:03.639Z,232.96
2023-05-19T02:10:03.822Z,235.59
2023-05-19T02:11:03.925Z,238.55
2023-05-19T02:12:04.122Z,240.76
2023-05-19T02:13:04.338Z,243.99
2023-05-19T02:14:04.471Z,244.76
2023-05-19T02:15:04.778Z,242.60
2023-05-19T02:16:04.870Z,242.10
2023-05-19T02:17:05.043Z,243.89
2023-05-19T02:18:05.295Z,244.77
2023-05-19T02:19:05.332Z,245.37
2023-05-19T02:20:05.643Z,242.45
2023-05-19T02:21:05.747Z,238.23
2023-05-19T02:22:06.054Z,236.46
2023-05-19T02:23:06.124Z,233.89
2023-05-19T02:24:06.353Z,235.59
2023-05-19T02:25:06.473Z,237.05
2023-05-19T02:26:06.644Z,234.24
2023-05-19T02:27:06.800Z,228.77
2023-05-19T02:28:06.968Z,225.11
2023-05-19T02:29:07.162Z,224.87
2023-05-19T02:30:07.368Z,227.32
2023-05-19T02:31:07.482Z,227.95
2023-05-19T02:32:07.756Z,227.22
2023-05-19T02:33:07.834Z,228.35
2023-05-19T02:34:08.028Z,228.77
2023-05-19T02:35:08.125Z,229.74
2023-05-19T02:36:08.295Z,230.14
2023-05-19T02:37:08.406Z,229.10
2023-05-19T02:38:08.585Z,227.09
2023-05-19T02:39:08.769Z,228.17
2023-05-19T02:40:08.954Z,232.11
2023-05-19T02:41:09.132Z,233.92
2023-05-19T02:42:09.346Z,234.59
2023-05-19T02:43:09.520Z,230.36
2023-05-19T02:44:09.710Z,227.32
2023-05-19T02:45:09.915Z,228.26
2023-05-19T02:46:10.142Z,227.80
2023-05-19T02:47:10.282Z,224.33
2023-05-19T02:48:10.521Z,223.33
2023-05-19T02:49:10.781Z,226.92
2023-05-19T02:50:10.864Z,228.26
2023-05-19T02:51:11.039Z,229.70
2023-05-19T02:52:11.294Z,228.55
2023-05-19T02:53:11.399Z,228.65
2023-05-19T02:54:11.586Z,231.58
2023-05-19T02:55:11.726Z,235.00
2023-05-19T02:56:11.920Z,238.88
2023-05-19T02:57:12.095Z,238.94
2023-05-19T02:58:12.226Z,240.63
2023-05-19T02:59:12.411Z,241.59
2023-05-19T03:00:12.518Z,239.71
2023-05-19T03:01:12.684Z,238.26
2023-05-19T03:02:12.898Z,240.72
2023-05-19T03:03:13.057Z,243.56
2023-05-19T03:04:13.139Z,246.41
2023-05-19T03:05:13.304Z,250.13
2023-05-19T03:06:13.498Z,248.55
2023-05-19T03:07:13.687Z,247.58
2023-05-19T03:08:13.799Z,246.60
2023-05-19T03:09:14.007Z,243.41
2023-05-19T03:10:14.151Z,240.52
2023-05-19T03:11:14.343Z,242.20
2023-05-19T03:12:14.479Z,242.79
2023-05-19T03:13:14.645Z,240.70
2023-05-19T03:14:14.847Z,237.97
2023-05-19T03:15:14.959Z,237.21
2023-05-19T03:16:15.126Z,235.79
2023-05-19T03:17:15.282Z,234.30
2023-05-19T03:18:15.473Z,234.16
2023-05-19T03:19:15.596Z,234.95
2023-05-19T03:20:15.745Z,235.60
2023-05-19T03:21:15.913Z,236.53
2023-05-19T03:22:16.069Z,237.12
2023-05-19T03:23:16.251Z,238.43
2023-05-19T03:24:16.403Z,241.48
2023-05-19T03:25:16.558Z,244.30
2023-05-19T03:26:16.691Z,246.68
2023-05-19T03:27:16.842Z,248.58
2023-05-19T03:28:17.013Z,249.30
2023-05-19T03:29:17.129Z,250.00
2023-05-19T03:30:17.281Z,249.95
2023-05-19T03:31:17.477Z,250.00
2023-05-19T03:32:17.668Z,249.74
2023-05-19T03:33:17.923Z,249.74
2023-05-19T03:34:17.894Z,249.63
2023-05-19T03:35:18.042Z,247.46
2023-05-19T03:36:18.220Z,245.56
2023-05-19T03:37:18.385Z,239.94
2023-05-19T03:38:18.563Z,233.49
2023-05-19T03:39:18.719Z,231.36
2023-05-19T03:40:18.899Z,231.87
2023-05-19T03:41:19.046Z,232.61
2023-05-19T03:42:19.200Z,232.37
2023-05-19T03:43:19.370Z,232.06
2023-05-19T03:44:19.538Z,234.85
2023-05-19T03:45:19.712Z,235.71
2023-05-19T03:46:19.976Z,239.38
2023-05-19T03:47:20.049Z,240.82
2023-05-19T03:48:21.397Z,242.15
2023-05-19T03:49:20.312Z,242.21
2023-05-19T03:50:20.339Z,243.68
2023-05-19T03:51:20.433Z,243.83
2023-05-19T03:52:20.426Z,243.95
2023-05-19T03:53:20.485Z,244.47
2023-05-19T03:54:20.557Z,245.38
2023-05-19T03:55:20.571Z,245.38
2023-05-19T03:56:20.619Z,242.84
2023-05-19T03:57:20.692Z,241.81
2023-05-19T03:58:20.735Z,239.70
2023-05-19T03:59:20.785Z,241.48
2023-05-19T04:00:20.838Z,244.00
2023-05-19T04:01:20.902Z,243.73
2023-05-19T04:02:20.965Z,243.53
2023-05-19T04:03:21.254Z,244.28
2023-05-19T04:04:21.097Z,245.04
2023-05-19T04:05:21.116Z,243.53
2023-05-19T04:06:21.189Z,240.24
2023-05-19T04:07:21.217Z,240.34
2023-05-19T04:08:21.387Z,242.85
2023-05-19T04:09:21.548Z,243.37
2023-05-19T04:10:21.854Z,246.18
2023-05-19T04:11:21.915Z,247.95
2023-05-19T04:12:22.144Z,248.04
2023-05-19T04:13:22.230Z,246.77
2023-05-19T04:14:22.367Z,247.72
2023-05-19T04:15:22.544Z,247.22
2023-05-19T04:16:22.814Z,247.96
2023-05-19T04:17:22.895Z,247.54
2023-05-19T04:18:23.066Z,247.83
2023-05-19T04:19:23.351Z,247.07
2023-05-19T04:20:23.387Z,249.42
2023-05-19T04:21:23.578Z,249.56
2023-05-19T04:22:23.762Z,249.84
2023-05-19T04:23:23.957Z,250.00
2023-05-19T04:24:24.154Z,249.68
2023-05-19T04:25:24.357Z,249.81
2023-05-19T04:26:24.521Z,248.17
2023-05-19T04:27:24.715Z,247.54
2023-05-19T04:28:24.880Z,245.70
2023-05-19T04:29:25.034Z,244.48
2023-05-19T04:30:25.229Z,245.68
2023-05-19T04:31:25.411Z,245.45
2023-05-19T04:32:25.683Z,244.43
2023-05-19T04:33:25.744Z,244.99
2023-05-19T04:34:25.902Z,243.01
2023-05-19T04:35:26.078Z,244.72
2023-05-19T04:36:26.244Z,244.59
2023-05-19T04:37:26.434Z,245.20
2023-05-19T04:38:26.640Z,243.77
2023-05-19T04:39:26.835Z,243.14
2023-05-19T04:40:27.017Z,243.83
2023-05-19T04:41:27.160Z,240.17
2023-05-19T04:42:27.316Z,239.86
2023-05-19T04:43:27.479Z,239.58
2023-05-19T04:44:27.651Z,236.85
2023-05-19T04:45:27.823Z,233.78
2023-05-19T04:46:27.989Z,230.82
2023-05-19T04:47:28.342Z,229.27
2023-05-19T04:48:28.257Z,227.33
2023-05-19T04:49:28.402Z,227.86
2023-05-19T04:50:28.602Z,228.58
2023-05-19T04:51:30.482Z,229.31
2023-05-19T04:52:28.738Z,231.22
2023-05-19T04:53:28.771Z,231.51
2023-05-19T04:54:28.835Z,230.42
2023-05-19T04:55:28.949Z,231.79
2023-05-19T04:56:28.954Z,232.63
2023-05-19T04:57:28.932Z,234.07
2023-05-19T04:58:28.970Z,235.85
2023-05-19T04:59:29.018Z,236.46
2023-05-19T05:00:29.064Z,235.30
2023-05-19T05:01:29.118Z,236.28
2023-05-19T05:02:29.343Z,239.85
2023-05-19T05:03:29.355Z,242.51
2023-05-19T05:04:29.247Z,244.56
2023-05-19T05:05:29.323Z,243.42
2023-05-19T05:06:29.340Z,243.43
2023-05-19T05:07:31.678Z,244.55
2023-05-19T05:08:29.334Z,242.81
2023-05-19T05:09:29.344Z,241.79
2023-05-19T05:10:29.340Z,240.20
2023-05-19T05:11:29.325Z,240.29
2023-05-19T05:12:29.301Z,239.98
2023-05-19T05:13:29.324Z,236.82
2023-05-19T05:14:29.316Z,236.34
2023-05-19T05:15:29.285Z,236.26
2023-05-19T05:16:29.368Z,236.39
2023-05-19T05:17:29.353Z,239.72
2023-05-19T05:18:29.320Z,241.82
2023-05-19T05:19:29.360Z,242.01
2023-05-19T05:20:29.269Z,240.15
2023-05-19T05:21:29.256Z,239.07
2023-05-19T05:22:29.292Z,240.39
2023-05-19T05:23:29.298Z,241.92
2023-05-19T05:24:29.294Z,242.57
2023-05-19T05:25:29.283Z,243.64
2023-05-19T05:26:29.287Z,244.35
2023-05-19T05:27:29.372Z,243.26
2023-05-19T05:28:29.343Z,242.35
2023-05-19T05:29:29.276Z,242.37
2023-05-19T05:30:29.310Z,244.21
2023-05-19T05:31:29.272Z,243.79
2023-05-19T05:32:29.336Z,244.15
2023-05-19T05:33:29.318Z,243.01
2023-05-19T05:34:29.250Z,244.42
2023-05-19T05:35:29.289Z,244.35
2023-05-19T05:36:29.262Z,245.26
2023-05-19T05:37:29.302Z,246.46
2023-05-19T05:38:29.270Z,244.17
2023-05-19T05:39:29.278Z,243.86
2023-05-19T05:40:29.299Z,244.90
2023-05-19T05:41:29.343Z,243.19
2023-05-19T05:42:29.868Z,244.44
2023-05-19T05:43:29.290Z,245.08
2023-05-19T05:44:29.268Z,242.56
2023-05-19T05:45:29.265Z,243.20
2023-05-19T05:46:29.322Z,239.40
2023-05-19T05:47:29.250Z,237.55
2023-05-19T05:48:29.221Z,236.75
2023-05-19T05:49:29.228Z,233.92
2023-05-19T05:50:29.223Z,233.68
2023-05-19T05:51:29.230Z,234.77
2023-05-19T05:52:29.224Z,236.71
2023-05-19T05:53:29.235Z,236.92
2023-05-19T05:54:29.313Z,238.00
2023-05-19T05:55:29.337Z,239.25
2023-05-19T05:56:29.402Z,239.20
2023-05-19T05:57:29.560Z,240.35
2023-05-19T05:58:29.721Z,241.89
2023-05-19T05:59:29.874Z,242.34
2023-05-19T06:00:30.165Z,241.74
2023-05-19T06:01:30.219Z,239.20
2023-05-19T06:02:30.447Z,237.14
2023-05-19T06:03:30.553Z,236.92
2023-05-19T06:04:30.663Z,236.51
2023-05-19T06:05:30.905Z,235.16
2023-05-19T06:06:31.036Z,235.11
2023-05-19T06:07:31.158Z,235.99
2023-05-19T06:08:31.437Z,237.04
2023-05-19T06:09:31.534Z,236.14
2023-05-19T06:10:32.081Z,235.21
2023-05-19T06:11:31.834Z,233.37
2023-05-19T06:12:31.840Z,235.10
2023-05-19T06:13:31.849Z,233.23
2023-05-19T06:14:31.869Z,229.99
2023-05-19T06:15:31.942Z,229.51
2023-05-19T06:16:32.016Z,223.02
2023-05-19T06:17:31.979Z,217.40
2023-05-19T06:18:31.957Z,211.10
2023-05-19T06:19:32.002Z,205.45
2023-05-19T06:20:32.352Z,202.83
2023-05-19T06:21:32.105Z,200.38
2023-05-19T06:22:32.152Z,201.67
2023-05-19T06:23:32.194Z,204.24
2023-05-19T06:24:32.212Z,207.32
2023-05-19T06:25:32.589Z,207.41
2023-05-19T06:26:32.278Z,203.98
2023-05-19T06:27:34.549Z,195.26
2023-05-19T06:28:32.369Z,188.24
2023-05-19T06:29:32.393Z,183.31
2023-05-19T06:30:32.566Z,182.27
2023-05-19T06:31:32.528Z,185.99
2023-05-19T06:32:32.570Z,190.23
2023-05-19T06:33:33.264Z,194.63
2023-05-19T06:34:32.543Z,195.34
2023-05-19T06:35:32.585Z,190.81
2023-05-19T06:36:32.641Z,187.78
2023-05-19T06:37:32.678Z,191.32
2023-05-19T06:38:32.641Z,193.74
2023-05-19T06:39:32.659Z,196.38
2023-05-19T06:40:32.853Z,196.19
2023-05-19T06:41:32.696Z,195.70
2023-05-19T06:42:32.715Z,191.40
2023-05-19T06:43:32.708Z,187.92
2023-05-19T06:44:32.743Z,183.42
2023-05-19T06:45:32.779Z,180.48
2023-05-19T06:46:32.860Z,179.34
2023-05-19T06:47:32.937Z,178.45
2023-05-19T06:48:32.898Z,176.20
2023-05-19T06:49:33.054Z,175.56
2023-05-19T06:50:33.308Z,174.98
2023-05-19T06:51:33.333Z,176.81
2023-05-19T06:52:33.448Z,179.08
2023-05-19T06:53:33.610Z,183.96
2023-05-19T06:54:33.752Z,189.38
2023-05-19T06:55:37.123Z,195.10
2023-05-19T06:56:34.847Z,195.26
2023-05-19T06:57:33.840Z,195.76
2023-05-19T06:58:33.813Z,195.66
2023-05-19T06:59:33.894Z,191.70
2023-05-19T07:00:33.972Z,189.27
2023-05-19T07:01:33.858Z,184.79
2023-05-19T07:02:33.852Z,175.53
2023-05-19T07:03:33.931Z,169.97
2023-05-19T07:04:33.769Z,167.45
2023-05-19T07:05:33.754Z,167.12
2023-05-19T07:06:33.713Z,164.38
2023-05-19T07:07:33.707Z,162.32
2023-05-19T07:08:33.694Z,161.54
2023-05-19T07:09:33.682Z,164.84
2023-05-19T07:10:33.862Z,164.32
2023-05-19T07:11:33.672Z,158.18
2023-05-19T07:12:33.644Z,155.83
2023-05-19T07:13:33.641Z,157.28
2023-05-19T07:14:33.621Z,164.20
2023-05-19T07:15:33.630Z,200.98
2023-05-19T07:16:33.651Z,231.64
2023-05-19T07:17:33.658Z,232.26
2023-05-19T07:18:33.614Z,219.76
2023-05-19T07:19:33.605Z,211.12
2023-05-19T07:20:33.785Z,204.96
2023-05-19T07:21:33.660Z,202.67
2023-05-19T07:22:33.601Z,201.23
2023-05-19T07:23:33.601Z,197.62
2023-05-19T07:24:33.580Z,192.72
2023-05-19T07:25:33.562Z,192.41
2023-05-19T07:26:33.571Z,196.12
2023-05-19T07:27:33.564Z,198.74
2023-05-19T07:28:33.543Z,202.88
2023-05-19T07:29:33.616Z,204.82
2023-05-19T07:30:33.763Z,201.55
2023-05-19T07:31:33.607Z,197.14
2023-05-19T07:32:33.730Z,188.51
2023-05-19T07:33:33.576Z,186.23
2023-05-19T07:34:33.581Z,187.98
2023-05-19T07:35:33.586Z,190.11
2023-05-19T07:36:33.619Z,186.95
2023-05-19T07:37:33.683Z,189.54
2023-05-19T07:38:33.761Z,187.71
2023-05-19T07:39:33.793Z,184.07
2023-05-19T07:40:33.919Z,178.39
2023-05-19T07:41:34.453Z,175.31
2023-05-19T07:42:33.917Z,178.46
2023-05-19T07:43:34.001Z,185.02
2023-05-19T07:44:33.991Z,189.09
2023-05-19T07:45:34.076Z,186.45
2023-05-19T07:46:34.077Z,183.13
2023-05-19T07:47:34.009Z,181.62
2023-05-19T07:48:34.012Z,176.70
2023-05-19T07:49:34.028Z,168.76
2023-05-19T07:50:34.269Z,166.38
2023-05-19T07:51:34.101Z,171.42
2023-05-19T07:52:34.112Z,173.53
2023-05-19T07:53:34.157Z,164.93
2023-05-19T07:54:34.184Z,165.26
2023-05-19T07:55:34.230Z,167.29
2023-05-19T07:56:34.253Z,161.76
2023-05-19T07:57:34.268Z,152.56
2023-05-19T07:58:34.292Z,151.49
2023-05-19T07:59:34.426Z,153.36
2023-05-19T08:00:34.526Z,152.28
2023-05-19T08:01:34.337Z,158.76
2023-05-19T08:02:34.371Z,153.02
2023-05-19T08:03:34.369Z,150.69
2023-05-19T08:04:34.260Z,153.99
2023-05-19T08:05:34.301Z,158.81
2023-05-19T08:06:34.228Z,159.18
2023-05-19T08:07:34.212Z,158.95
2023-05-19T08:08:34.212Z,162.33
2023-05-19T08:09:34.281Z,161.15
2023-05-19T08:10:34.674Z,152.77
2023-05-19T08:11:34.343Z,137.26
2023-05-19T08:12:34.302Z,135.41
2023-05-19T08:13:34.326Z,138.97
2023-05-19T08:14:34.317Z,140.26
2023-05-19T08:15:34.400Z,141.23
2023-05-19T08:16:34.352Z,146.79
2023-05-19T08:17:34.372Z,147.99
2023-05-19T08:18:34.359Z,149.44
2023-05-19T08:19:34.405Z,152.32
2023-05-19T08:20:34.613Z,147.52
2023-05-19T08:21:34.401Z,146.91
2023-05-19T08:22:34.404Z,142.53
2023-05-19T08:23:34.431Z,136.83
2023-05-19T08:24:34.444Z,139.35
2023-05-19T08:25:34.412Z,145.03
2023-05-19T08:26:36.915Z,147.67
2023-05-19T08:27:34.345Z,148.47
2023-05-19T08:28:34.294Z,143.12
2023-05-19T08:29:34.264Z,139.13
2023-05-19T08:30:34.458Z,126.71
2023-05-19T08:31:34.242Z,121.76
2023-05-19T08:32:34.140Z,117.87
2023-05-19T08:33:34.083Z,111.09
2023-05-19T08:34:34.046Z,107.31
2023-05-19T08:35:34.041Z,101.67
2023-05-19T08:36:34.324Z,100.91
2023-05-19T08:37:34.249Z,98.49
2023-05-19T08:38:33.866Z,98.67
2023-05-19T08:39:33.825Z,99.47
2023-05-19T08:40:34.112Z,100.67
2023-05-19T08:41:33.738Z,106.76
2023-05-19T08:42:33.701Z,111.02
2023-05-19T08:43:33.694Z,116.85
2023-05-19T08:44:33.599Z,120.67
2023-05-19T08:45:33.732Z,122.69
2023-05-19T08:46:33.585Z,117.89
2023-05-19T08:47:33.509Z,109.79
2023-05-19T08:48:33.367Z,104.56
2023-05-19T08:49:33.309Z,110.14
2023-05-19T08:50:33.501Z,113.97
2023-05-19T08:51:33.186Z,116.54
2023-05-19T08:52:33.128Z,119.79
2023-05-19T08:53:34.644Z,114.00
2023-05-19T08:54:33.010Z,111.88
2023-05-19T08:55:33.183Z,115.60
2023-05-19T08:56:32.905Z,112.85
2023-05-19T08:57:32.890Z,106.62
2023-05-19T08:58:32.832Z,104.46
2023-05-19T08:59:32.805Z,102.94
2023-05-19T09:00:32.923Z,98.45
2023-05-19T09:01:32.783Z,98.71
2023-05-19T09:02:32.780Z,97.22
2023-05-19T09:03:32.781Z,96.44
2023-05-19T09:04:32.730Z,97.30
2023-05-19T09:05:32.768Z,99.77
2023-05-19T09:06:32.535Z,107.88
2023-05-19T09:07:32.477Z,108.59
2023-05-19T09:08:32.417Z,98.52
2023-05-19T09:09:32.365Z,93.65
2023-05-19T09:10:32.319Z,95.84
2023-05-19T09:11:32.823Z,95.79
2023-05-19T09:12:32.225Z,97.49
2023-05-19T09:13:32.218Z,98.62
2023-05-19T09:14:32.209Z,109.42
2023-05-19T09:15:32.347Z,112.73
2023-05-19T09:16:32.222Z,107.96
2023-05-19T09:17:32.176Z,105.59
2023-05-19T09:18:32.164Z,98.83
2023-05-19T09:19:32.296Z,95.75
2023-05-19T09:20:32.130Z,98.47
2023-05-19T09:21:32.145Z,91.65
2023-05-19T09:22:32.146Z,89.85
2023-05-19T09:23:32.255Z,81.20
2023-05-19T09:24:32.177Z,80.84
2023-05-19T09:25:32.318Z,70.78
2023-05-19T09:26:32.194Z,68.99
2023-05-19T09:27:32.170Z,67.57
2023-05-19T09:28:32.159Z,66.98
2023-05-19T09:29:32.200Z,77.03
2023-05-19T09:30:32.139Z,78.52
2023-05-19T09:31:32.131Z,78.35
2023-05-19T09:32:32.115Z,68.17
2023-05-19T09:33:32.050Z,62.30
2023-05-19T09:34:32.045Z,72.80
2023-05-19T09:35:32.315Z,76.32
2023-05-19T09:36:32.333Z,67.12
2023-05-19T09:37:32.413Z,63.78
2023-05-19T09:38:32.542Z,62.71
2023-05-19T09:39:32.702Z,73.83
2023-05-19T09:40:32.793Z,77.98
2023-05-19T09:41:32.915Z,79.20
2023-05-19T09:42:33.127Z,77.62
2023-05-19T09:43:32.928Z,79.17
2023-05-19T09:44:33.206Z,90.65
2023-05-19T09:45:33.470Z,97.94
2023-05-19T09:46:33.274Z,100.96
2023-05-19T09:47:33.153Z,105.32
2023-05-19T09:48:33.044Z,100.61
2023-05-19T09:49:33.127Z,97.21
2023-05-19T09:50:32.912Z,101.29
2023-05-19T09:51:32.860Z,100.03
2023-05-19T09:52:32.745Z,101.13
2023-05-19T09:53:32.738Z,99.03
2023-05-19T09:54:32.712Z,98.89
2023-05-19T09:55:32.867Z,100.57
2023-05-19T09:56:32.445Z,97.23
2023-05-19T09:57:32.325Z,94.65
2023-05-19T09:58:32.239Z,97.04
2023-05-19T09:59:33.775Z,93.72
2023-05-19T10:00:32.170Z,92.44
2023-05-19T10:01:32.025Z,85.68
2023-05-19T10:02:31.943Z,76.90
2023-05-19T10:03:31.817Z,63.92
2023-05-19T10:04:31.789Z,63.31
2023-05-19T10:05:31.802Z,61.04
2023-05-19T10:06:31.558Z,67.37
2023-05-19T10:07:31.490Z,79.28
2023-05-19T10:08:31.394Z,75.65
2023-05-19T10:09:31.306Z,88.38
2023-05-19T10:10:31.273Z,93.87
2023-05-19T10:11:31.142Z,90.63
2023-05-19T10:12:31.052Z,88.40
2023-05-19T10:13:31.069Z,85.15
2023-05-19T10:14:30.870Z,90.13
2023-05-19T10:15:30.984Z,90.94
2023-05-19T10:16:30.743Z,98.60
2023-05-19T10:17:30.651Z,96.68
2023-05-19T10:18:30.606Z,88.15
2023-05-19T10:19:30.507Z,89.14
2023-05-19T10:20:30.897Z,100.86
2023-05-19T10:21:30.394Z,111.10
2023-05-19T10:22:30.343Z,103.19
2023-05-19T10:23:30.320Z,107.01
2023-05-19T10:24:30.287Z,116.07
2023-05-19T10:25:30.205Z,114.88
2023-05-19T10:26:30.145Z,118.62
2023-05-19T10:27:30.074Z,117.03
2023-05-19T10:28:29.995Z,114.07
2023-05-19T10:29:29.931Z,102.71
2023-05-19T10:30:29.862Z,107.35
2023-05-19T10:31:29.896Z,118.00
2023-05-19T10:32:29.981Z,125.37
2023-05-19T10:33:29.835Z,123.42
2023-05-19T10:34:29.960Z,124.47
2023-05-19T10:35:31.095Z,131.78
2023-05-19T10:36:30.048Z,133.02
2023-05-19T10:37:30.008Z,131.41
2023-05-19T10:38:29.954Z,135.87
2023-05-19T10:39:29.843Z,138.19
2023-05-19T10:40:29.849Z,137.76
2023-05-19T10:41:29.746Z,132.37
2023-05-19T10:42:29.711Z,119.49
2023-05-19T10:43:29.701Z,122.44
2023-05-19T10:44:29.618Z,122.20
2023-05-19T10:45:29.594Z,121.20
2023-05-19T10:46:29.546Z,121.31
2023-05-19T10:47:29.638Z,116.95
2023-05-19T10:48:29.747Z,112.26
2023-05-19T10:49:29.872Z,109.27
2023-05-19T10:50:30.039Z,112.35
2023-05-19T10:51:30.173Z,105.39
2023-05-19T10:52:30.358Z,96.53
2023-05-19T10:53:30.483Z,82.86
2023-05-19T10:54:30.620Z,66.90
2023-05-19T10:55:30.951Z,53.62
2023-05-19T10:56:30.919Z,54.02
2023-05-19T10:57:31.076Z,58.26
2023-05-19T10:58:31.157Z,70.76
2023-05-19T10:59:31.322Z,81.27
2023-05-19T11:00:31.419Z,78.69
2023-05-19T11:01:31.588Z,79.59
2023-05-19T11:02:31.713Z,80.77
2023-05-19T11:03:31.870Z,76.75
2023-05-19T11:04:31.977Z,79.15
2023-05-19T11:05:32.267Z,81.84
2023-05-19T11:06:32.208Z,83.37
2023-05-19T11:07:32.362Z,81.93
2023-05-19T11:08:32.519Z,80.74
2023-05-19T11:09:40.071Z,83.02
2023-05-19T11:10:33.564Z,80.98
2023-05-19T11:11:33.309Z,72.31
2023-05-19T11:12:32.372Z,63.42
2023-05-19T11:13:32.293Z,59.36
2023-05-19T11:14:32.201Z,65.74
2023-05-19T11:15:32.355Z,66.77
2023-05-19T11:16:32.008Z,66.94
2023-05-19T11:17:33.134Z,71.86
2023-05-19T11:18:31.764Z,75.73
2023-05-19T11:19:31.741Z,77.80
2023-05-19T11:20:31.653Z,73.72
2023-05-19T11:21:31.757Z,71.92
2023-05-19T11:22:31.586Z,76.11
2023-05-19T11:23:33.417Z,77.02
2023-05-19T11:24:31.569Z,60.73
2023-05-19T11:25:31.622Z,57.25
2023-05-19T11:26:31.373Z,53.62
2023-05-19T11:27:31.358Z,56.95
2023-05-19T11:28:31.141Z,58.55
2023-05-19T11:29:31.934Z,63.82
2023-05-19T11:30:30.936Z,70.01
2023-05-19T11:31:30.849Z,77.71
2023-05-19T11:32:30.913Z,75.09
2023-05-19T11:33:30.689Z,69.10
2023-05-19T11:34:30.590Z,64.26
2023-05-19T11:35:30.692Z,66.79
2023-05-19T11:36:30.386Z,65.77
2023-05-19T11:37:30.276Z,60.89
2023-05-19T11:38:30.406Z,51.53
2023-05-19T11:39:30.059Z,56.09
2023-05-19T11:40:29.959Z,66.87
2023-05-19T11:41:29.823Z,70.69
2023-05-19T11:42:29.736Z,70.14
2023-05-19T11:43:29.693Z,60.22
2023-05-19T11:44:29.815Z,60.37
2023-05-19T11:45:29.947Z,65.92
2023-05-19T11:46:30.133Z,67.57
2023-05-19T11:47:32.033Z,61.87
2023-05-19T11:48:31.238Z,53.85
2023-05-19T11:49:30.052Z,43.29
2023-05-19T11:50:29.937Z,35.53
2023-05-19T11:51:29.849Z,42.28
2023-05-19T11:52:29.745Z,52.30
2023-05-19T11:53:29.683Z,53.16
2023-05-19T11:54:29.646Z,54.19
2023-05-19T11:55:29.623Z,50.57
2023-05-19T11:56:29.573Z,56.22
2023-05-19T11:57:29.578Z,62.21
2023-05-19T11:58:29.659Z,55.38
2023-05-19T11:59:29.766Z,63.61
2023-05-19T12:00:29.965Z,56.21
2023-05-19T12:01:30.014Z,48.47
2023-05-19T12:02:30.212Z,36.20
2023-05-19T12:03:30.466Z,36.38
2023-05-19T12:04:30.461Z,27.32
2023-05-19T12:05:30.647Z,31.82
2023-05-19T12:06:30.492Z,36.24
2023-05-19T12:07:30.452Z,38.67
2023-05-19T12:08:30.355Z,39.23
2023-05-19T12:09:30.278Z,40.89
2023-05-19T12:10:30.211Z,31.88
2023-05-19T12:11:30.107Z,29.33
2023-05-19T12:12:30.039Z,38.87
2023-05-19T12:13:29.937Z,36.24
2023-05-19T12:14:29.934Z,35.84
2023-05-19T12:15:29.742Z,30.78
2023-05-19T12:16:31.165Z,24.62
2023-05-19T12:17:29.640Z,13.68
2023-05-19T12:18:29.515Z,17.83
2023-05-19T12:19:29.413Z,28.12
2023-05-19T12:20:29.298Z,44.16
2023-05-19T12:21:33.837Z,49.61
2023-05-19T12:22:30.090Z,49.62
2023-05-19T12:23:28.962Z,49.27
2023-05-19T12:24:28.819Z,47.11
2023-05-19T12:25:28.720Z,41.46
2023-05-19T12:26:28.574Z,31.27
2023-05-19T12:27:28.459Z,25.27
2023-05-19T12:28:28.343Z,28.82
2023-05-19T12:29:28.231Z,25.74
2023-05-19T12:30:28.112Z,18.85
2023-05-19T12:31:28.021Z,32.13
2023-05-19T12:32:27.955Z,34.73
2023-05-19T12:33:27.753Z,35.35
2023-05-19T12:34:27.687Z,29.81